createdAt,value
2023-10-26T00:00:38.572Z,96801.75
2023-10-26T00:03:40.129Z,96800.06
2023-10-26T00:06:41.605Z,96804.38
2023-10-26T00:09:43.025Z,96804.38
2023-10-26T00:12:44.709Z,96805.38
2023-10-26T00:15:46.184Z,96790.44
2023-10-26T00:18:47.712Z,96791.19
2023-10-26T00:21:49.170Z,96791.44
2023-10-26T00:24:50.929Z,96790.34
2023-10-26T00:27:52.661Z,96796.19
2023-10-26T00:30:54.081Z,96792.34
2023-10-26T00:33:55.540Z,96790.44
2023-10-26T00:36:56.973Z,96788.63
2023-10-26T00:39:58.485Z,96789.97
2023-10-26T00:43:00.487Z,96786.59
2023-10-26T00:46:01.946Z,96783.59
2023-10-26T00:49:03.546Z,96778.09
2023-10-26T00:52:05.222Z,96788.75
2023-10-26T00:55:06.733Z,96787.44
2023-10-26T00:58:08.291Z,96791.59
2023-10-26T01:01:09.730Z,96801.78
2023-10-26T01:04:16.838Z,96801.03
2023-10-26T01:07:18.373Z,96801.13
2023-10-26T01:10:19.786Z,96798.56
2023-10-26T01:13:21.350Z,96799.56
2023-10-26T01:16:23.054Z,96797.75
2023-10-26T01:19:36.863Z,96802.44
2023-10-26T01:22:38.316Z,96804.81
2023-10-26T01:25:40.209Z,96799.59
2023-10-26T01:28:41.628Z,96801.81
2023-10-26T01:31:43.072Z,96799.06
2023-10-26T01:34:44.659Z,96789.91
2023-10-26T01:37:46.226Z,96789.13
2023-10-26T01:40:47.736Z,96786.53
2023-10-26T01:43:49.160Z,96780.56
2023-10-26T01:46:50.597Z,96781.56
2023-10-26T01:49:52.024Z,96773.47
2023-10-26T01:52:53.558Z,96770.66
2023-10-26T01:55:55.039Z,96774.97
2023-10-26T01:58:56.489Z,96772.63
2023-10-26T02:01:57.927Z,96774.78
2023-10-26T02:04:59.474Z,96765.59
2023-10-26T02:08:01.019Z,96768.91
2023-10-26T02:11:02.513Z,96763.22
2023-10-26T02:14:03.939Z,96775.16
2023-10-26T02:17:05.700Z,96774.25
2023-10-26T02:20:07.432Z,96754.13
2023-10-26T02:23:08.931Z,96752.00
2023-10-26T02:26:10.369Z,96763.69
2023-10-26T02:29:11.875Z,96763.31
2023-10-26T02:32:13.299Z,96759.09
2023-10-26T02:35:14.857Z,96766.63
2023-10-26T02:38:16.269Z,96737.00
2023-10-26T02:41:17.682Z,96737.25
2023-10-26T02:44:19.151Z,96730.38
2023-10-26T02:47:20.585Z,96733.91
2023-10-26T02:50:22.118Z,96738.19
2023-10-26T02:53:23.756Z,96736.56
2023-10-26T02:56:25.187Z,96738.84
2023-10-26T02:59:26.784Z,96730.81
2023-10-26T03:02:28.285Z,96731.41
2023-10-26T03:05:31.135Z,96732.56
2023-10-26T03:08:32.640Z,96730.81
2023-10-26T03:11:34.072Z,96743.78
2023-10-26T03:14:35.516Z,96741.00
2023-10-26T03:17:37.074Z,96742.88
2023-10-26T03:20:38.515Z,96725.94
2023-10-26T03:23:39.948Z,96735.97
2023-10-26T03:26:41.379Z,96730.59
2023-10-26T03:29:42.802Z,96739.13
2023-10-26T03:32:45.406Z,96728.88
2023-10-26T03:35:46.872Z,96735.91
2023-10-26T03:38:48.333Z,96730.47
2023-10-26T03:41:49.754Z,96723.69
2023-10-26T03:44:51.265Z,96711.34
2023-10-26T03:47:52.806Z,96713.81
2023-10-26T03:50:54.337Z,96701.00
2023-10-26T03:53:55.807Z,96722.69
2023-10-26T03:56:57.332Z,96718.34
2023-10-26T03:59:58.848Z,96725.88
2023-10-26T04:03:00.822Z,96728.25
2023-10-26T04:06:04.382Z,96709.25
2023-10-26T04:09:06.102Z,96714.06
2023-10-26T04:12:07.815Z,96705.09
2023-10-26T04:15:09.721Z,96705.38
2023-10-26T04:18:11.605Z,96694.75
2023-10-26T04:21:13.153Z,96700.66
2023-10-26T04:24:14.625Z,96702.41
2023-10-26T04:27:16.154Z,96703.25
2023-10-26T04:30:17.692Z,96703.25
2023-10-26T04:33:19.460Z,96700.22
2023-10-26T04:36:21.635Z,96698.25
2023-10-26T04:39:23.565Z,96704.59
2023-10-26T04:42:25.093Z,96689.47
2023-10-26T04:45:26.661Z,96691.81
2023-10-26T04:48:28.176Z,96701.50
2023-10-26T04:51:30.198Z,96688.44
2023-10-26T04:54:31.738Z,96685.00
2023-10-26T04:57:33.304Z,96692.47
2023-10-26T05:00:34.917Z,96691.34
2023-10-26T05:03:37.749Z,96686.50
2023-10-26T05:06:39.320Z,96679.09
2023-10-26T05:09:40.865Z,96677.72
2023-10-26T05:12:42.361Z,96667.59
2023-10-26T05:15:44.112Z,96673.81
2023-10-26T05:18:45.615Z,96662.41
2023-10-26T05:21:47.067Z,96662.94
2023-10-26T05:24:48.529Z,96656.81
2023-10-26T05:27:50.038Z,96654.66
2023-10-26T05:30:51.452Z,96652.81
2023-10-26T05:33:52.917Z,96647.25
2023-10-26T05:36:54.422Z,96633.88
2023-10-26T05:39:55.879Z,96633.88
2023-10-26T05:42:57.426Z,96624.75
2023-10-26T05:46:02.551Z,96610.84
2023-10-26T05:49:04.221Z,96609.34
2023-10-26T05:52:05.823Z,96603.56
2023-10-26T05:55:07.428Z,96602.81
2023-10-26T05:58:11.886Z,96601.84
2023-10-26T06:01:13.382Z,96607.31
2023-10-26T06:04:14.839Z,96601.84
2023-10-26T06:07:16.285Z,96591.09
2023-10-26T06:10:17.737Z,96596.63
2023-10-26T06:13:19.231Z,96590.19
2023-10-26T06:16:21.481Z,96584.13
2023-10-26T06:19:22.997Z,96583.66
2023-10-26T06:22:24.415Z,96588.88
2023-10-26T06:25:26.935Z,96590.28
2023-10-26T06:28:28.661Z,96597.81
2023-10-26T06:31:30.153Z,96593.34
2023-10-26T06:34:31.973Z,96600.34
2023-10-26T06:37:33.657Z,96603.19
2023-10-26T06:40:35.103Z,96597.25
2023-10-26T06:43:37.434Z,96597.78
2023-10-26T06:46:38.873Z,96603.69
2023-10-26T06:49:42.451Z,96597.63
2023-10-26T06:52:44.201Z,96588.41
2023-10-26T06:55:46.041Z,96590.88
2023-10-26T06:58:48.441Z,96587.41
2023-10-26T07:02:08.795Z,96585.81
2023-10-26T07:05:13.756Z,96584.81
2023-10-26T07:08:15.237Z,96585.38
2023-10-26T07:11:16.680Z,96581.16
2023-10-26T07:14:18.098Z,96585.50
2023-10-26T07:17:19.548Z,96587.09
2023-10-26T07:20:21.087Z,96575.00
2023-10-26T07:23:22.614Z,96588.56
2023-10-26T07:26:24.155Z,96578.03
2023-10-26T07:29:25.577Z,96573.41
2023-10-26T07:32:27.031Z,96571.56
2023-10-26T07:35:28.590Z,96575.00
2023-10-26T07:38:35.117Z,96571.16
2023-10-26T07:42:07.466Z,96577.78
2023-10-26T07:45:00.172Z,96577.47
2023-10-26T07:48:02.315Z,96566.91
2023-10-26T07:51:04.281Z,96565.78
2023-10-26T07:57:12.120Z,96559.19
2023-10-26T08:00:14.149Z,96550.34
2023-10-26T08:03:15.645Z,96545.97
2023-10-26T08:06:17.084Z,96550.00
2023-10-26T08:09:18.527Z,96548.91
2023-10-26T08:12:19.959Z,96538.81
2023-10-26T08:16:10.738Z,96544.66
2023-10-26T08:18:44.986Z,96540.38
2023-10-26T08:21:47.220Z,96541.53
2023-10-26T08:24:48.866Z,96543.13
2023-10-26T08:27:50.316Z,96550.41
2023-10-26T08:30:53.779Z,96557.88
2023-10-26T08:33:55.213Z,96556.91
2023-10-26T08:37:12.169Z,96552.59
2023-10-26T08:40:14.910Z,96554.34
2023-10-26T08:43:16.509Z,96554.72
2023-10-26T08:46:18.465Z,96552.06
2023-10-26T08:49:20.424Z,96544.38
2023-10-26T08:52:22.905Z,96543.38
2023-10-26T08:55:24.414Z,96559.94
2023-10-26T08:58:26.011Z,96567.22
2023-10-26T09:01:27.540Z,96555.66
2023-10-26T09:04:29.383Z,96568.00
2023-10-26T09:07:31.443Z,96572.28
2023-10-26T09:10:34.152Z,96565.94
2023-10-26T09:13:36.106Z,96582.00
2023-10-26T09:16:38.270Z,96573.66
2023-10-26T09:19:40.393Z,96573.59
2023-10-26T09:22:41.887Z,96577.19
2023-10-26T09:25:53.787Z,96560.00
2023-10-26T09:28:55.851Z,96582.00
2023-10-26T09:31:57.935Z,96582.75
2023-10-26T09:34:59.457Z,96586.63
2023-10-26T09:38:01.083Z,96600.75
2023-10-26T09:41:03.839Z,96599.97
2023-10-26T09:44:05.710Z,96596.38
2023-10-26T09:47:07.970Z,96599.91
2023-10-26T09:50:09.993Z,96591.66
2023-10-26T09:56:22.303Z,96616.59
2023-10-26T09:59:24.296Z,96614.53
2023-10-26T10:02:25.746Z,96619.72
2023-10-26T10:05:37.902Z,96607.81
2023-10-26T10:08:58.172Z,96625.94
2023-10-26T10:12:17.936Z,96628.69
2023-10-26T10:15:40.313Z,96639.72
2023-10-26T10:19:02.013Z,96633.09
2023-10-26T10:22:03.780Z,96625.09
2023-10-26T10:25:05.991Z,96627.06
2023-10-26T10:28:07.715Z,96635.66
2023-10-26T10:31:10.757Z,96624.88
2023-10-26T10:34:12.497Z,96629.84
2023-10-26T10:37:14.177Z,96617.91
2023-10-26T10:40:16.086Z,96625.91
2023-10-26T10:43:17.542Z,96603.72
2023-10-26T10:46:20.479Z,96599.84
2023-10-26T10:49:24.908Z,96589.53
2023-10-26T10:52:26.371Z,96577.22
2023-10-26T10:55:31.459Z,96607.69
2023-10-26T10:58:39.002Z,96604.81
2023-10-26T11:01:40.518Z,96603.13
2023-10-26T11:05:02.412Z,96601.56
2023-10-26T11:08:11.310Z,96602.84
2023-10-26T11:11:27.656Z,96612.16
2023-10-26T11:14:29.567Z,96627.91
2023-10-26T11:17:31.033Z,96647.41
2023-10-26T11:20:39.207Z,96646.00
2023-10-26T11:23:40.651Z,96642.28
2023-10-26T11:26:42.076Z,96621.16
2023-10-26T11:29:45.060Z,96623.69
2023-10-26T11:32:46.610Z,96638.09
2023-10-26T11:35:48.060Z,96633.88
2023-10-26T11:38:49.811Z,96644.63
2023-10-26T11:41:55.461Z,96658.41
2023-10-26T11:44:57.364Z,96654.09
2023-10-26T11:47:59.890Z,96644.72
2023-10-26T11:51:03.968Z,96628.41
2023-10-26T11:54:12.228Z,96627.84
2023-10-26T11:57:13.662Z,96631.97
2023-10-26T12:00:16.117Z,96635.13
2023-10-26T12:03:17.587Z,96619.69
2023-10-26T12:06:19.157Z,96609.69
2023-10-26T12:09:20.612Z,96624.34
2023-10-26T12:12:22.068Z,96628.72
2023-10-26T12:15:23.578Z,96617.88
2023-10-26T12:18:25.046Z,96618.41
2023-10-26T12:21:26.662Z,96615.88
2023-10-26T12:24:28.185Z,96616.50
2023-10-26T12:27:29.631Z,96615.38
2023-10-26T12:30:31.133Z,96616.16
2023-10-26T12:33:34.153Z,96608.97
2023-10-26T12:36:37.402Z,96601.31
2023-10-26T12:39:38.897Z,96593.78
2023-10-26T12:42:40.669Z,96598.06
2023-10-26T12:45:42.169Z,96589.38
2023-10-26T12:48:43.702Z,96595.03
2023-10-26T12:51:45.206Z,96578.09
2023-10-26T12:54:46.660Z,96560.56
2023-10-26T12:57:48.435Z,96555.56
2023-10-26T13:00:49.986Z,96561.56
2023-10-26T13:03:52.358Z,96573.59
2023-10-26T13:06:53.819Z,96605.69
2023-10-26T13:09:55.275Z,96594.03
2023-10-26T13:12:56.784Z,96584.84
2023-10-26T13:15:58.296Z,96559.00
2023-10-26T13:18:59.812Z,96571.56
2023-10-26T13:22:01.310Z,96556.69
2023-10-26T13:25:02.893Z,96563.91
2023-10-26T13:28:04.644Z,96580.75
2023-10-26T13:31:07.970Z,96601.28
2023-10-26T13:34:09.693Z,96584.00
2023-10-26T13:37:11.219Z,96589.25
2023-10-26T13:40:12.771Z,96577.94
2023-10-26T13:43:17.134Z,96578.53
2023-10-26T13:46:18.602Z,96589.88
2023-10-26T13:49:20.418Z,96594.06
2023-10-26T13:52:21.885Z,96599.69
2023-10-26T13:55:23.343Z,96614.84
2023-10-26T13:58:24.783Z,96621.38
2023-10-26T14:01:26.538Z,96620.97
2023-10-26T14:04:28.064Z,96634.78
2023-10-26T14:07:29.520Z,96621.13
2023-10-26T14:10:30.928Z,96604.75
2023-10-26T14:13:32.645Z,96626.00
2023-10-26T14:16:34.148Z,96610.31
2023-10-26T14:19:35.678Z,96616.41
2023-10-26T14:22:37.216Z,96609.97
2023-10-26T14:25:38.654Z,96612.59
2023-10-26T14:28:40.067Z,96617.03
2023-10-26T14:31:41.572Z,96632.34
2023-10-26T14:34:44.880Z,96634.53
2023-10-26T14:37:51.297Z,96636.59
2023-10-26T14:40:56.178Z,96638.75
2023-10-26T14:43:57.632Z,96633.63
2023-10-26T14:46:59.163Z,96643.13
2023-10-26T14:50:00.607Z,96639.34
2023-10-26T14:53:02.097Z,96634.53
2023-10-26T14:56:03.989Z,96636.09
2023-10-26T14:59:06.428Z,96633.84
2023-10-26T15:02:07.847Z,96620.22
2023-10-26T15:05:10.212Z,96615.16
2023-10-26T15:08:11.784Z,96605.78
2023-10-26T15:11:24.394Z,96597.84
2023-10-26T15:14:26.630Z,96585.09
2023-10-26T15:17:28.223Z,96578.53
2023-10-26T15:20:29.707Z,96583.72
2023-10-26T15:23:31.158Z,96573.53
2023-10-26T15:26:32.784Z,96578.09
2023-10-26T15:29:35.258Z,96573.00
2023-10-26T15:32:36.773Z,96577.38
2023-10-26T15:35:38.236Z,96579.41
2023-10-26T15:38:42.333Z,96574.31
2023-10-26T15:41:44.089Z,96569.16
2023-10-26T15:44:50.083Z,96578.38
2023-10-26T15:47:51.846Z,96570.56
2023-10-26T15:50:58.581Z,96574.59
2023-10-26T15:54:00.247Z,96568.53
2023-10-26T15:57:01.759Z,96566.84
2023-10-26T16:00:07.541Z,96566.84
2023-10-26T16:03:09.048Z,96561.75
2023-10-26T16:06:10.701Z,96556.06
2023-10-26T16:09:12.170Z,96544.41
2023-10-26T16:12:13.786Z,96557.44
2023-10-26T16:15:15.545Z,96551.47
2023-10-26T16:18:17.013Z,96562.31
2023-10-26T16:21:18.507Z,96549.75
2023-10-26T16:24:21.015Z,96543.03
2023-10-26T16:27:22.661Z,96540.19
2023-10-26T16:30:24.059Z,96535.84
2023-10-26T16:33:25.840Z,96541.06
2023-10-26T16:36:27.313Z,96535.41
2023-10-26T16:39:28.740Z,96539.66
2023-10-26T16:42:30.204Z,96547.88
2023-10-26T16:45:31.788Z,96540.91
2023-10-26T16:48:33.350Z,96537.88
2023-10-26T16:51:34.866Z,96538.47
2023-10-26T16:54:36.423Z,96545.41
2023-10-26T16:57:38.166Z,96539.66
2023-10-26T17:00:41.665Z,96536.38
2023-10-26T17:03:45.790Z,96532.00
2023-10-26T17:06:47.285Z,96539.50
2023-10-26T17:09:49.132Z,96534.28
2023-10-26T17:12:50.651Z,96527.53
2023-10-26T17:15:55.115Z,96530.34
2023-10-26T17:18:57.620Z,96540.69
2023-10-26T17:21:59.151Z,96536.69
2023-10-26T17:25:00.769Z,96525.25
2023-10-26T17:28:02.395Z,96535.69
2023-10-26T17:31:05.486Z,96522.69
2023-10-26T17:34:06.977Z,96523.09
2023-10-26T17:37:08.608Z,96528.31
2023-10-26T17:40:10.418Z,96530.59
2023-10-26T17:43:13.754Z,96532.44
2023-10-26T17:46:17.722Z,96535.97
2023-10-26T17:49:19.331Z,96528.44
2023-10-26T17:52:20.973Z,96524.50
2023-10-26T17:55:23.126Z,96522.28
2023-10-26T17:58:24.767Z,96515.13
2023-10-26T18:01:26.329Z,96526.00
2023-10-26T18:04:27.828Z,96524.25
2023-10-26T18:07:29.312Z,96524.13
2023-10-26T18:10:30.840Z,96520.06
2023-10-26T18:13:32.630Z,96518.25
2023-10-26T18:16:34.735Z,96513.25
2023-10-26T18:19:36.189Z,96511.78
2023-10-26T18:22:37.690Z,96510.13
2023-10-26T18:25:39.261Z,96513.47
2023-10-26T18:28:41.302Z,96490.75
2023-10-26T18:31:43.408Z,96487.00
2023-10-26T18:34:45.029Z,96482.16
2023-10-26T18:37:46.630Z,96483.75
2023-10-26T18:40:48.125Z,96476.28
2023-10-26T18:43:49.874Z,96480.84
2023-10-26T18:46:51.417Z,96482.22
2023-10-26T18:49:52.897Z,96477.16
2023-10-26T18:52:54.561Z,96473.66
2023-10-26T18:55:56.159Z,96475.28
2023-10-26T18:58:57.741Z,96475.88
2023-10-26T19:02:01.333Z,96477.78
2023-10-26T19:05:03.211Z,96477.16
2023-10-26T19:08:05.193Z,96473.00
2023-10-26T19:11:06.722Z,96475.09
2023-10-26T19:14:08.278Z,96461.09
2023-10-26T19:17:10.746Z,96469.69
2023-10-26T19:20:12.903Z,96473.88
2023-10-26T19:23:14.485Z,96476.75
2023-10-26T19:26:15.966Z,96467.78
2023-10-26T19:29:17.475Z,96466.84
2023-10-26T19:32:20.016Z,96467.56
2023-10-26T19:35:21.523Z,96464.69
2023-10-26T19:38:23.005Z,96465.00
2023-10-26T19:41:24.500Z,96463.69
2023-10-26T19:44:25.967Z,96471.69
2023-10-26T19:47:27.426Z,96469.03
2023-10-26T19:50:30.640Z,96464.34
2023-10-26T19:53:36.502Z,96467.88
2023-10-26T19:56:38.353Z,96462.59
2023-10-26T19:59:40.052Z,96465.38
2023-10-26T20:02:41.596Z,96464.28
2023-10-26T20:05:43.251Z,96463.75
2023-10-26T20:08:44.800Z,96454.94
2023-10-26T20:11:46.392Z,96447.28
2023-10-26T20:14:47.891Z,96442.31
2023-10-26T20:17:49.426Z,96436.28
2023-10-26T20:20:50.895Z,96432.00
2023-10-26T20:23:52.364Z,96426.78
2023-10-26T20:26:53.831Z,96427.03
2023-10-26T20:30:01.694Z,96416.72
2023-10-26T20:33:05.513Z,96420.31
2023-10-26T20:36:07.137Z,96409.06
2023-10-26T20:39:10.892Z,96404.75
2023-10-26T20:42:14.105Z,96403.41
2023-10-26T20:45:15.721Z,96393.16
2023-10-26T20:48:17.156Z,96393.28
2023-10-26T20:51:18.699Z,96399.03
2023-10-26T20:54:20.163Z,96390.06
2023-10-26T20:57:21.714Z,96392.63
2023-10-26T21:00:23.217Z,96391.09
2023-10-26T21:03:24.665Z,96390.41
2023-10-26T21:06:26.093Z,96389.63
2023-10-26T21:09:28.061Z,96388.81
2023-10-26T21:12:29.550Z,96381.78
2023-10-26T21:15:31.042Z,96378.25
2023-10-26T21:18:32.486Z,96378.44
2023-10-26T21:21:34.095Z,96363.09
2023-10-26T21:24:35.511Z,96357.28
2023-10-26T21:27:37.010Z,96348.16
2023-10-26T21:30:38.842Z,96354.72
2023-10-26T21:33:40.336Z,96347.38
2023-10-26T21:36:41.833Z,96338.59
2023-10-26T21:39:43.568Z,96329.78
2023-10-26T21:42:45.195Z,96325.34
2023-10-26T21:45:46.750Z,96318.72
2023-10-26T21:48:48.335Z,96321.53
2023-10-26T21:51:49.811Z,96318.50
2023-10-26T21:54:51.291Z,96310.19
2023-10-26T21:57:52.877Z,96308.41
2023-10-26T22:00:54.576Z,96306.53
2023-10-26T22:04:18.024Z,96311.34
2023-10-26T22:07:18.961Z,96310.25
2023-10-26T22:10:20.872Z,96312.19
2023-10-26T22:13:22.525Z,96306.19
2023-10-26T22:16:24.156Z,96303.66
2023-10-26T22:19:25.648Z,96301.81
2023-10-26T22:22:27.112Z,96308.47
2023-10-26T22:25:29.372Z,96305.75
2023-10-26T22:28:30.913Z,96298.47
2023-10-26T22:31:32.849Z,96313.72
2023-10-26T22:34:34.329Z,96307.81
2023-10-26T22:37:36.144Z,96308.09
2023-10-26T22:40:37.627Z,96302.19
2023-10-26T22:43:39.054Z,96307.03
2023-10-26T22:46:40.513Z,96312.13
2023-10-26T22:49:42.103Z,96317.09
2023-10-26T22:52:43.660Z,96311.66
2023-10-26T22:55:45.194Z,96314.38
2023-10-26T22:58:46.695Z,96316.03
2023-10-26T23:01:48.151Z,96314.50
2023-10-26T23:04:51.304Z,96319.78
2023-10-26T23:07:56.136Z,96323.88
2023-10-26T23:10:57.600Z,96328.91
2023-10-26T23:13:59.155Z,96327.75
2023-10-26T23:17:00.620Z,96337.13
2023-10-26T23:20:02.080Z,96334.69
2023-10-26T23:23:03.576Z,96335.41
2023-10-26T23:26:07.374Z,96329.44
2023-10-26T23:29:08.871Z,96328.59
2023-10-26T23:32:10.442Z,96325.75
2023-10-26T23:35:11.923Z,96329.63
2023-10-26T23:38:13.366Z,96326.16
2023-10-26T23:41:17.357Z,96328.16
2023-10-26T23:44:18.838Z,96327.03
2023-10-26T23:47:20.424Z,96321.19
2023-10-26T23:50:21.931Z,96327.88
2023-10-26T23:53:23.407Z,96329.28
2023-10-26T23:56:24.890Z,96326.78
2023-10-26T23:59:26.355Z,96317.47
